Time;durP1;ratioP1;P1;durP2;ratioP2;P2;SDS_P1;SDS_P2;PMS_P1;PMS_P2;Temp;Humidity;BMP_temperature;BMP_pressure;BME280_temperature;BME280_humidity;BME280_pressure;Samples;Min_cycle;Max_cycle;Signal;HPM_P1;HPM_P2
2023/04/10 00:01:14;;;;;;;1.67;1.57;;;;;4.10;96530.00;;;;5053185;28;20562;-62
2023/04/10 00:03:42;;;;;;;1.20;1.20;;;;;4.10;96537.00;;;;5052973;28;20219;-62
2023/04/10 00:06:10;;;;;;;1.63;1.53;;;;;3.90;96531.00;;;;5053233;28;20250;-62
2023/04/10 00:08:38;;;;;;;1.77;1.67;;;;;4.10;96520.00;;;;5052894;28;20259;-62
2023/04/10 00:11:06;;;;;;;1.43;1.43;;;;;4.00;96526.00;;;;5053201;28;20604;-61
2023/04/10 00:13:33;;;;;;;1.20;1.20;;;;;3.90;96519.00;;;;5053558;28;20687;-62
2023/04/10 00:16:01;;;;;;;2.07;1.97;;;;;3.70;96527.00;;;;5052905;28;20188;-62
2023/04/10 00:18:28;;;;;;;1.97;1.87;;;;;3.50;96521.00;;;;5055072;28;20191;-62
2023/04/10 00:20:55;;;;;;;1.83;1.73;;;;;3.60;96525.00;;;;5057034;28;20195;-62
2023/04/10 00:23:23;;;;;;;4.27;1.67;;;;;3.70;96520.00;;;;5057486;28;20583;-61
2023/04/10 00:25:51;;;;;;;2.10;1.53;;;;;3.60;96511.00;;;;5056987;28;20201;-62
2023/04/10 00:28:19;;;;;;;3.90;3.53;;;;;3.50;96520.00;;;;5056849;28;20207;-61
2023/04/10 00:30:46;;;;;;;1.10;1.10;;;;;3.50;96509.00;;;;5055509;28;20231;-61
2023/04/10 00:33:14;;;;;;;1.67;1.57;;;;;3.60;96500.00;;;;5056725;28;20213;-61
2023/04/10 00:35:41;;;;;;;2.10;2.00;;;;;3.50;96504.00;;;;5057118;28;20192;-62
2023/04/10 00:38:08;;;;;;;1.77;1.67;;;;;3.30;96503.00;;;;5056176;28;20203;-61
2023/04/10 00:40:36;;;;;;;2.63;1.83;;;;;3.10;96495.00;;;;5056893;28;20203;-61
2023/04/10 00:43:05;;;;;;;1.63;1.53;;;;;3.10;96494.00;;;;5057101;28;20235;-61
2023/04/10 00:45:32;;;;;;;3.10;1.83;;;;;2.90;96499.00;;;;5056816;28;20561;-61
2023/04/10 00:47:59;;;;;;;1.90;1.80;;;;;3.00;96494.00;;;;5056805;28;20193;-61
2023/04/10 00:50:27;;;;;;;1.67;1.07;;;;;3.20;96495.00;;;;5056709;28;20216;-62
2023/04/10 00:52:54;;;;;;;1.20;1.10;;;;;3.10;96502.00;;;;5056920;28;20243;-61
2023/04/10 00:55:23;;;;;;;1.30;1.30;;;;;3.10;96501.00;;;;5056354;28;20627;-61
2023/04/10 00:57:50;;;;;;;2.63;2.03;;;;;3.20;96503.00;;;;5056307;28;20549;-61
2023/04/10 01:00:20;;;;;;;1.17;1.17;;;;;3.20;96514.00;;;;5056820;28;20192;-62
2023/04/10 01:02:48;;;;;;;1.17;1.13;;;;;3.00;96509.00;;;;5056200;28;20216;-62
2023/04/10 01:05:15;;;;;;;1.77;1.67;;;;;3.20;96507.00;;;;5055442;28;20196;-62
2023/04/10 01:07:57;;;;;;;0.80;0.80;;;;;3.10;96504.00;;;;5056376;28;20219;-62
2023/04/10 01:10:35;;;;;;;1.00;1.00;;;;;3.10;96511.00;;;;5056356;28;20611;-61
2023/04/10 01:13:11;;;;;;;1.83;1.73;;;;;3.10;96500.00;;;;5056554;28;20228;-62
2023/04/10 01:15:46;;;;;;;1.80;1.70;;;;;3.10;96501.00;;;;5056948;28;20191;-62
2023/04/10 01:18:21;;;;;;;1.73;1.63;;;;;3.00;96497.00;;;;5056525;28;20234;-62
2023/04/10 01:20:48;;;;;;;2.07;1.97;;;;;3.00;96503.00;;;;5056166;28;20578;-62
2023/04/10 01:23:42;;;;;;;1.03;1.03;;;;;3.00;96491.00;;;;5056030;28;20211;-62
2023/04/10 01:26:11;;;;;;;2.33;1.63;;;;;3.10;96486.00;;;;5055890;28;20187;-62
2023/04/10 01:28:53;;;;;;;1.80;1.53;;;;;3.00;96479.00;;;;5055934;28;20283;-62
2023/04/10 01:31:26;;;;;;;2.53;2.33;;;;;3.00;96475.00;;;;5055142;28;20207;-62
2023/04/10 01:33:58;;;;;;;1.50;1.40;;;;;2.90;96491.00;;;;5054726;28;20650;-62
2023/04/10 01:36:31;;;;;;;2.10;2.00;;;;;2.80;96486.00;;;;5054526;28;20283;-62
2023/04/10 01:39:00;;;;;;;2.00;1.90;;;;;2.60;96474.00;;;;5055616;28;20184;-62
2023/04/10 01:41:27;;;;;;;1.50;1.40;;;;;2.60;96491.00;;;;5055579;28;20200;-61
2023/04/10 01:43:58;;;;;;;1.70;1.37;;;;;2.50;96497.00;;;;5055468;28;20590;-62
2023/04/10 01:46:26;;;;;;;0.97;0.97;;;;;2.40;96497.00;;;;5056020;28;20652;-62
2023/04/10 01:48:55;;;;;;;3.10;2.47;;;;;2.50;96503.00;;;;5056042;28;20262;-62
2023/04/10 01:51:23;;;;;;;1.40;1.40;;;;;2.50;96493.00;;;;5055306;28;20231;-62
2023/04/10 01:53:52;;;;;;;1.30;1.20;;;;;2.60;96497.00;;;;5055258;28;20227;-62
2023/04/10 01:56:20;;;;;;;0.77;0.77;;;;;2.50;96499.00;;;;5055884;28;20671;-62
2023/04/10 01:58:48;;;;;;;1.10;1.10;;;;;2.50;96502.00;;;;5055201;28;20223;-61
2023/04/10 02:01:20;;;;;;;0.87;0.87;;;;;2.60;96496.00;;;;5055141;28;20195;-61
2023/04/10 02:03:48;;;;;;;1.43;1.30;;;;;2.60;96492.00;;;;5054637;28;20306;-62
2023/04/10 02:06:26;;;;;;;1.37;1.37;;;;;2.60;96502.00;;;;5055958;28;20679;-62
2023/04/10 02:08:57;;;;;;;1.00;1.00;;;;;2.70;96490.00;;;;5053735;28;20195;-61
2023/04/10 02:11:31;;;;;;;3.80;1.80;;;;;2.70;96490.00;;;;5055553;28;20200;-61
2023/04/10 02:14:04;;;;;;;4.43;1.60;;;;;2.50;96494.00;;;;5055012;28;20273;-62
2023/04/10 02:16:33;;;;;;;1.40;1.30;;;;;2.40;96494.00;;;;5055143;28;20195;-61
2023/04/10 02:19:02;;;;;;;1.97;1.57;;;;;2.40;96506.00;;;;5055385;28;20196;-62
2023/04/10 02:21:30;;;;;;;2.43;2.23;;;;;2.30;96489.00;;;;5054803;28;20198;-62
2023/04/10 02:23:58;;;;;;;1.17;1.17;;;;;2.40;96484.00;;;;5054935;28;20612;-62
2023/04/10 02:26:25;;;;;;;1.30;1.30;;;;;2.40;96491.00;;;;5054707;28;20222;-61
2023/04/10 02:28:53;;;;;;;1.67;1.57;;;;;2.40;96493.00;;;;5054748;28;20192;-61
2023/04/10 02:31:20;;;;;;;2.10;2.00;;;;;2.40;96491.00;;;;5054546;28;20230;-62
2023/04/10 02:33:49;;;;;;;1.77;1.67;;;;;2.40;96478.00;;;;5054570;28;20216;-62
2023/04/10 02:36:16;;;;;;;2.00;1.37;;;;;2.30;96486.00;;;;5055055;28;20200;-62
2023/04/10 02:38:44;;;;;;;1.87;1.77;;;;;2.10;96489.00;;;;5054488;28;20747;-62
2023/04/10 02:41:11;;;;;;;1.63;1.57;;;;;2.10;96497.00;;;;5054192;28;20192;-61
2023/04/10 02:43:39;;;;;;;4.00;2.20;;;;;2.10;96493.00;;;;5054167;28;20216;-62
2023/04/10 02:46:06;;;;;;;1.97;1.87;;;;;2.10;96493.00;;;;5053009;28;20674;-62
2023/04/10 02:48:34;;;;;;;2.00;1.83;;;;;2.10;96484.00;;;;5054764;28;20200;-62
2023/04/10 02:51:03;;;;;;;0.83;0.83;;;;;2.20;96488.00;;;;5052862;28;20230;-62
2023/04/10 02:53:30;;;;;;;1.00;1.00;;;;;2.10;96474.00;;;;5052807;28;20222;-62
2023/04/10 02:55:57;;;;;;;1.43;1.33;;;;;2.10;96489.00;;;;5054167;28;20588;-61
2023/04/10 02:58:26;;;;;;;1.10;1.10;;;;;2.10;96477.00;;;;5054735;28;20194;-62
2023/04/10 03:00:53;;;;;;;1.80;1.70;;;;;2.10;96485.00;;;;5054003;28;20195;-62
2023/04/10 03:03:21;;;;;;;1.50;1.43;;;;;2.10;96495.00;;;;5053893;28;20211;-62
2023/04/10 03:05:48;;;;;;;2.30;1.70;;;;;2.10;96468.00;;;;5052666;28;20200;-62
2023/04/10 03:08:17;;;;;;;0.80;0.80;;;;;2.00;96478.00;;;;5054417;28;20234;-62
2023/04/10 03:10:47;;;;;;;1.70;1.60;;;;;2.00;96462.00;;;;5052576;28;20301;-62
2023/04/10 03:13:15;;;;;;;2.30;2.10;;;;;1.90;96460.00;;;;5052488;28;20220;-63
2023/04/10 03:15:42;;;;;;;1.27;1.20;;;;;2.00;96459.00;;;;5052515;28;20196;-62
2023/04/10 03:18:10;;;;;;;1.07;1.07;;;;;1.90;96462.00;;;;5054391;28;20203;-62
2023/04/10 03:20:38;;;;;;;1.20;1.10;;;;;1.90;96462.00;;;;5054185;28;20257;-62
2023/04/10 03:23:06;;;;;;;1.80;1.67;;;;;1.80;96463.00;;;;5053597;28;20297;-62
2023/04/10 03:25:36;;;;;;;1.40;1.40;;;;;1.70;96457.00;;;;5052373;28;20211;-62
2023/04/10 03:28:03;;;;;;;2.93;2.33;;;;;1.50;96458.00;;;;5054355;28;20196;-62
2023/04/10 03:30:31;;;;;;;1.67;1.57;;;;;1.60;96454.00;;;;5052124;28;20234;-62
2023/04/10 03:32:58;;;;;;;1.43;1.17;;;;;1.70;96445.00;;;;5053612;28;20567;-62
2023/04/10 03:35:25;;;;;;;1.93;1.83;;;;;1.80;96461.00;;;;5053496;28;20207;-61
2023/04/10 03:37:53;;;;;;;1.67;1.57;;;;;1.70;96452.00;;;;5053376;28;20196;-61
2023/04/10 03:40:20;;;;;;;1.27;1.27;;;;;1.60;96448.00;;;;5054173;28;20599;-61
2023/04/10 03:42:53;;;;;;;6.53;3.53;;;;;1.70;96452.00;;;;5053220;28;20626;-63
2023/04/10 03:45:21;;;;;;;2.00;1.83;;;;;1.60;96451.00;;;;5053357;28;20654;-62
2023/04/10 03:47:48;;;;;;;2.00;1.50;;;;;1.70;96454.00;;;;5053254;28;20210;-62
2023/04/10 03:50:15;;;;;;;1.13;1.13;;;;;1.70;96443.00;;;;5053177;28;20211;-62
2023/04/10 03:52:43;;;;;;;1.10;1.03;;;;;1.80;96440.00;;;;5052604;28;20192;-62
2023/04/10 03:55:10;;;;;;;1.47;1.17;;;;;1.70;96435.00;;;;5053384;28;20207;-61
2023/04/10 03:57:38;;;;;;;1.87;1.77;;;;;1.60;96438.00;;;;5052689;28;20294;-61
2023/04/10 04:00:08;;;;;;;1.50;1.40;;;;;1.50;96429.00;;;;5053617;28;20195;-63
2023/04/10 04:02:35;;;;;;;1.47;1.40;;;;;1.50;96424.00;;;;5053528;28;20199;-61
2023/04/10 04:05:03;;;;;;;3.03;2.30;;;;;1.50;96424.00;;;;5053012;28;20535;-61
2023/04/10 04:07:30;;;;;;;0.67;0.67;;;;;1.60;96423.00;;;;5051641;28;20195;-61
2023/04/10 04:09:57;;;;;;;1.70;1.60;;;;;1.60;96418.00;;;;5053097;28;20555;-61
2023/04/10 04:12:25;;;;;;;1.43;1.43;;;;;1.50;96425.00;;;;5053052;28;20666;-62
2023/04/10 04:14:52;;;;;;;1.93;1.83;;;;;1.50;96423.00;;;;5052931;28;20199;-62
2023/04/10 04:17:21;;;;;;;2.03;1.83;;;;;1.50;96421.00;;;;5052848;28;20198;-62
2023/04/10 04:19:48;;;;;;;1.83;1.57;;;;;1.50;96419.00;;;;5052786;28;20199;-62
2023/04/10 04:22:16;;;;;;;1.30;1.30;;;;;1.50;96418.00;;;;5053120;28;20195;-63
2023/04/10 04:24:43;;;;;;;1.67;1.57;;;;;1.40;96418.00;;;;5052694;28;20212;-62
2023/04/10 04:27:10;;;;;;;3.07;2.33;;;;;1.40;96422.00;;;;5052789;28;20270;-63
2023/04/10 04:29:38;;;;;;;2.47;2.27;;;;;1.10;96414.00;;;;5052790;28;20199;-63
2023/04/10 04:32:05;;;;;;;1.30;1.30;;;;;1.30;96410.00;;;;5052587;28;20214;-62
2023/04/10 04:34:34;;;;;;;2.03;1.47;;;;;1.30;96420.00;;;;5052889;28;20223;-62
2023/04/10 04:37:04;;;;;;;1.50;1.40;;;;;1.30;96429.00;;;;5052610;28;20195;-63
2023/04/10 04:39:34;;;;;;;2.00;1.80;;;;;1.20;96427.00;;;;5053225;28;20558;-62
2023/04/10 04:42:01;;;;;;;2.13;1.83;;;;;1.20;96430.00;;;;5052957;28;20195;-62
2023/04/10 04:44:29;;;;;;;2.03;1.93;;;;;1.20;96428.00;;;;5051191;28;20229;-62
2023/04/10 04:46:56;;;;;;;4.07;1.50;;;;;1.40;96442.00;;;;5052567;28;20199;-62
2023/04/10 04:49:24;;;;;;;1.47;1.43;;;;;1.50;96429.00;;;;5052503;28;20717;-62
2023/04/10 04:51:53;;;;;;;1.40;1.33;;;;;1.50;96434.00;;;;5051162;28;20255;-62
2023/04/10 04:54:20;;;;;;;1.17;1.17;;;;;1.50;96430.00;;;;5052382;28;20223;-62
2023/04/10 04:56:47;;;;;;;1.13;1.13;;;;;1.30;96439.00;;;;5052559;28;20686;-63
2023/04/10 04:59:15;;;;;;;1.47;1.47;;;;;1.40;96431.00;;;;5052714;28;20282;-62
2023/04/10 05:01:42;;;;;;;3.33;2.00;;;;;1.50;96436.00;;;;5052464;28;20195;-62
2023/04/10 05:04:10;;;;;;;4.83;1.40;;;;;1.70;96439.00;;;;5053667;28;20224;-62
2023/04/10 05:06:37;;;;;;;2.10;1.80;;;;;1.80;96438.00;;;;5056251;28;20206;-61
2023/04/10 05:09:06;;;;;;;1.23;1.20;;;;;1.80;96447.00;;;;5056301;28;20203;-62
2023/04/10 05:11:33;;;;;;;1.73;1.63;;;;;1.70;96447.00;;;;5054774;28;20230;-62
2023/04/10 05:14:01;;;;;;;2.23;2.03;;;;;1.70;96455.00;;;;5055919;28;20215;-62
2023/04/10 05:16:28;;;;;;;1.53;1.43;;;;;1.80;96445.00;;;;5056066;28;20196;-62
2023/04/10 05:18:56;;;;;;;1.77;1.67;;;;;1.80;96438.00;;;;5056048;28;20273;-62
2023/04/10 05:21:23;;;;;;;3.57;1.80;;;;;1.80;96442.00;;;;5055951;28;20242;-62
2023/04/10 05:23:51;;;;;;;1.30;1.30;;;;;1.80;96439.00;;;;5055876;28;20227;-62
2023/04/10 05:26:19;;;;;;;2.53;2.20;;;;;1.80;96437.00;;;;5054616;28;20658;-62
2023/04/10 05:28:47;;;;;;;3.40;1.83;;;;;1.90;96448.00;;;;5054629;28;20229;-63
2023/04/10 05:31:14;;;;;;;1.13;1.13;;;;;1.80;96450.00;;;;5055713;28;20218;-62
2023/04/10 05:33:41;;;;;;;1.77;1.67;;;;;1.80;96442.00;;;;5055743;28;20246;-62
2023/04/10 05:36:10;;;;;;;1.47;1.37;;;;;1.80;96448.00;;;;5055973;28;20264;-62
2023/04/10 05:38:37;;;;;;;1.80;1.47;;;;;1.90;96446.00;;;;5055842;28;20203;-62
2023/04/10 05:41:05;;;;;;;1.00;1.00;;;;;2.00;96447.00;;;;5055580;28;20199;-62
2023/04/10 05:43:33;;;;;;;3.03;2.20;;;;;1.90;96446.00;;;;5069130;22;20242;-63
2023/04/10 05:46:01;;;;;;;1.07;1.07;;;;;1.70;96451.00;;;;5055250;28;20684;-64
2023/04/10 05:48:28;;;;;;;2.33;2.20;;;;;1.80;96450.00;;;;5055259;28;20203;-64
2023/04/10 05:50:56;;;;;;;3.67;2.87;;;;;1.90;96444.00;;;;5055171;28;20731;-63
2023/04/10 05:53:30;;;;;;;1.43;1.33;;;;;2.10;96444.00;;;;5055424;28;20216;-63
2023/04/10 05:55:58;;;;;;;1.30;1.30;;;;;2.10;96450.00;;;;5055491;28;20671;-64
2023/04/10 05:58:26;;;;;;;1.67;1.57;;;;;2.10;96453.00;;;;5055529;28;20199;-63
2023/04/10 06:00:55;;;;;;;1.07;1.07;;;;;2.10;96456.00;;;;5055155;28;20556;-64
2023/04/10 06:03:22;;;;;;;1.53;1.43;;;;;2.20;96459.00;;;;5055049;28;20215;-64
2023/04/10 06:05:50;;;;;;;1.13;1.13;;;;;2.20;96456.00;;;;5054977;28;20278;-64
2023/04/10 06:08:18;;;;;;;3.60;2.43;;;;;2.20;96447.00;;;;5054967;28;20195;-63
2023/04/10 06:10:46;;;;;;;1.93;1.83;;;;;2.30;96454.00;;;;5055478;28;20199;-63
2023/04/10 06:13:13;;;;;;;2.33;2.10;;;;;2.40;96453.00;;;;5054858;28;20273;-63
2023/04/10 06:15:41;;;;;;;2.93;1.37;;;;;2.50;96455.00;;;;5054288;28;20200;-64
2023/04/10 06:18:10;;;;;;;1.40;1.30;;;;;2.80;96450.00;;;;5036920;28;20228;-64
2023/04/10 06:20:37;;;;;;;1.33;1.33;;;;;2.90;96448.00;;;;5054958;28;20622;-64
2023/04/10 06:23:05;;;;;;;0.83;0.83;;;;;2.90;96450.00;;;;5054767;28;20192;-64
2023/04/10 06:25:32;;;;;;;1.43;1.40;;;;;2.90;96449.00;;;;5054674;28;20195;-64
2023/04/10 06:27:59;;;;;;;1.00;1.00;;;;;3.00;96441.00;;;;5054893;28;20196;-65
2023/04/10 06:30:27;;;;;;;2.87;2.50;;;;;3.00;96444.00;;;;5055245;28;20196;-65
2023/04/10 06:32:54;;;;;;;1.17;1.13;;;;;3.00;96438.00;;;;5054759;28;20219;-64
2023/04/10 06:35:23;;;;;;;1.43;1.43;;;;;3.00;96434.00;;;;5054872;28;20196;-64
2023/04/10 06:37:51;;;;;;;2.03;1.93;;;;;3.10;96437.00;;;;5054642;28;20299;-64
2023/04/10 06:40:19;;;;;;;1.30;1.20;;;;;3.20;96434.00;;;;5054952;28;20192;-63
2023/04/10 06:42:46;;;;;;;2.40;2.10;;;;;3.40;96429.00;;;;5054707;28;20209;-64
2023/04/10 06:45:13;;;;;;;3.50;2.60;;;;;3.40;96443.00;;;;5036327;28;20579;-63
2023/04/10 06:47:41;;;;;;;5.90;2.07;;;;;3.50;96442.00;;;;5054739;28;20196;-64
2023/04/10 06:50:09;;;;;;;1.83;1.73;;;;;3.60;96422.00;;;;5054897;28;20188;-64
2023/04/10 06:52:38;;;;;;;1.03;1.03;;;;;3.70;96424.00;;;;5054288;28;20216;-63
2023/04/10 06:55:06;;;;;;;1.70;1.60;;;;;3.80;96424.00;;;;5054119;28;20215;-64
2023/04/10 06:57:33;;;;;;;1.90;1.80;;;;;3.90;96426.00;;;;5053973;28;20291;-63
2023/04/10 07:00:00;;;;;;;2.03;1.93;;;;;4.00;96421.00;;;;5054515;28;20206;-62
2023/04/10 07:02:28;;;;;;;1.13;1.13;;;;;4.10;96418.00;;;;5054553;28;20651;-63
2023/04/10 07:04:55;;;;;;;1.47;1.40;;;;;4.20;96417.00;;;;5054565;28;20219;-64
2023/04/10 07:07:23;;;;;;;1.50;1.40;;;;;4.20;96421.00;;;;5053921;28;20192;-63
2023/04/10 07:09:52;;;;;;;2.70;2.50;;;;;4.00;96423.00;;;;5054133;28;20192;-64
2023/04/10 07:12:19;;;;;;;1.90;1.80;;;;;4.20;96418.00;;;;5054122;28;20218;-63
2023/04/10 07:14:46;;;;;;;4.53;2.10;;;;;4.30;96421.00;;;;5054057;28;20263;-63
2023/04/10 07:17:14;;;;;;;1.23;1.23;;;;;4.60;96421.00;;;;5053731;28;20534;-63
2023/04/10 07:19:41;;;;;;;1.60;1.50;;;;;4.70;96424.00;;;;5053915;28;20280;-63
2023/04/10 07:22:08;;;;;;;1.60;1.50;;;;;4.70;96414.00;;;;5054609;28;20215;-62
2023/04/10 07:24:36;;;;;;;1.23;1.23;;;;;5.00;96420.00;;;;5053926;28;20635;-62
2023/04/10 07:27:04;;;;;;;1.07;1.07;;;;;5.10;96419.00;;;;5035308;28;20652;-63
2023/04/10 07:29:32;;;;;;;3.90;2.60;;;;;5.20;96419.00;;;;5054173;28;20525;-64
2023/04/10 07:31:59;;;;;;;1.67;1.57;;;;;5.40;96420.00;;;;5054076;28;20224;-62
2023/04/10 07:34:27;;;;;;;1.37;1.30;;;;;5.50;96423.00;;;;5053448;28;20224;-64
2023/04/10 07:36:54;;;;;;;1.23;1.23;;;;;5.80;96428.00;;;;5053438;28;20199;-63
2023/04/10 07:39:22;;;;;;;1.63;1.57;;;;;5.70;96412.00;;;;5053227;28;20333;-63
2023/04/10 07:41:49;;;;;;;1.10;1.07;;;;;5.80;96426.00;;;;5054261;28;20192;-62
2023/04/10 07:44:18;;;;;;;1.37;1.37;;;;;6.30;96419.00;;;;5053078;28;20765;-62
2023/04/10 07:46:46;;;;;;;1.67;1.57;;;;;6.40;96419.00;;;;5053377;28;20194;-62
2023/04/10 07:49:13;;;;;;;1.43;1.33;;;;;6.60;96416.00;;;;5053223;28;20532;-62
2023/04/10 07:51:41;;;;;;;1.10;1.10;;;;;6.90;96411.00;;;;5053720;28;20216;-62
2023/04/10 07:54:08;;;;;;;1.33;1.23;;;;;6.60;96409.00;;;;5053189;28;20572;-63
2023/04/10 07:56:35;;;;;;;1.53;1.53;;;;;7.00;96410.00;;;;5053268;28;20191;-62
2023/04/10 07:59:03;;;;;;;1.47;1.37;;;;;7.00;96403.00;;;;5035065;28;20597;-63
2023/04/10 08:01:32;;;;;;;1.17;1.17;;;;;7.20;96414.00;;;;5053463;28;20192;-62
2023/04/10 08:04:00;;;;;;;1.60;1.50;;;;;7.40;96401.00;;;;5052848;28;20216;-62
2023/04/10 08:06:27;;;;;;;1.67;1.57;;;;;7.60;96403.00;;;;5053000;28;20217;-62
2023/04/10 08:08:55;;;;;;;1.87;1.77;;;;;7.90;96407.00;;;;5053380;28;20252;-62
2023/04/10 08:11:24;;;;;;;1.03;1.03;;;;;8.00;96392.00;;;;5052690;28;20196;-63
2023/04/10 08:13:51;;;;;;;1.00;1.00;;;;;8.20;96396.00;;;;5052999;28;20299;-63
2023/04/10 08:16:23;;;;;;;1.63;1.53;;;;;8.30;96387.00;;;;5052903;28;20192;-62
2023/04/10 08:18:51;;;;;;;0.90;0.90;;;;;8.60;96399.00;;;;5053290;28;20173;-62
2023/04/10 08:21:19;;;;;;;1.20;1.20;;;;;8.70;96408.00;;;;5052631;28;20270;-63
2023/04/10 08:23:46;;;;;;;0.73;0.73;;;;;8.80;96403.00;;;;5035413;28;20635;-63
2023/04/10 08:26:14;;;;;;;0.90;0.90;;;;;9.00;96407.00;;;;5052735;28;20200;-64
2023/04/10 08:28:46;;;;;;;1.07;1.07;;;;;9.00;96406.00;;;;5052656;28;20199;-65
2023/04/10 08:31:13;;;;;;;0.90;0.90;;;;;9.20;96403.00;;;;5052762;28;20189;-62
2023/04/10 08:33:41;;;;;;;1.10;1.10;;;;;9.30;96404.00;;;;5053233;28;20636;-60
2023/04/10 08:36:11;;;;;;;1.47;1.37;;;;;9.60;96415.00;;;;5052595;28;20192;-60
2023/04/10 08:38:39;;;;;;;2.73;1.10;;;;;9.80;96405.00;;;;5053296;28;20200;-61
2023/04/10 08:41:10;;;;;;;1.53;1.43;;;;;10.00;96410.00;;;;5056688;28;20192;-60
2023/04/10 08:43:37;;;;;;;1.07;1.07;;;;;10.10;96411.00;;;;5039068;28;20281;-60
2023/04/10 08:46:05;;;;;;;1.63;1.53;;;;;10.20;96410.00;;;;5056547;28;20664;-60
2023/04/10 08:48:38;;;;;;;1.10;1.00;;;;;10.50;96417.00;;;;5057028;28;20258;-60
2023/04/10 08:51:07;;;;;;;0.80;0.80;;;;;10.60;96413.00;;;;5056810;28;20192;-60
2023/04/10 08:53:40;;;;;;;1.03;1.03;;;;;10.60;96410.00;;;;5056894;28;20344;-60
2023/04/10 08:56:11;;;;;;;0.93;0.93;;;;;10.30;96408.00;;;;5056672;28;20184;-61
2023/04/10 08:58:39;;;;;;;0.80;0.80;;;;;10.70;96407.00;;;;5056425;28;20187;-60
2023/04/10 09:01:08;;;;;;;0.80;0.80;;;;;10.80;96408.00;;;;5056367;28;20199;-61
2023/04/10 09:03:36;;;;;;;1.03;1.03;;;;;10.90;96406.00;;;;5056631;28;20215;-61
2023/04/10 09:06:04;;;;;;;0.60;0.60;;;;;10.90;96396.00;;;;5056263;28;20197;-60
2023/04/10 09:08:32;;;;;;;0.93;0.93;;;;;11.00;96400.00;;;;5056231;28;20192;-61
2023/04/10 09:11:01;;;;;;;0.80;0.80;;;;;11.20;96389.00;;;;5056102;28;20246;-60
2023/04/10 09:13:39;;;;;;;0.70;0.70;;;;;11.40;96394.00;;;;5056313;28;20231;-60
2023/04/10 09:16:08;;;;;;;0.63;0.63;;;;;11.80;96390.00;;;;5056181;28;20250;-60
2023/04/10 09:18:43;;;;;;;1.00;1.00;;;;;11.90;96387.00;;;;5055961;28;20210;-60
2023/04/10 09:21:11;;;;;;;0.83;0.83;;;;;11.90;96387.00;;;;5055877;28;20192;-61
2023/04/10 09:23:39;;;;;;;0.70;0.70;;;;;11.70;96375.00;;;;5056230;28;20215;-59
2023/04/10 09:26:23;;;;;;;0.90;0.90;;;;;11.70;96381.00;;;;5037948;28;20196;-59
2023/04/10 09:28:57;;;;;;;1.17;1.17;;;;;12.00;96373.00;;;;5055795;28;20215;-60
2023/04/10 09:31:30;;;;;;;0.80;0.80;;;;;11.60;96369.00;;;;5055801;28;20179;-60
2023/04/10 09:34:14;;;;;;;1.27;1.27;;;;;12.00;96360.00;;;;5056247;28;20224;-61
2023/04/10 09:36:43;;;;;;;0.83;0.83;;;;;11.90;96361.00;;;;5055677;28;20199;-60
2023/04/10 09:39:11;;;;;;;0.57;0.57;;;;;12.10;96364.00;;;;5055609;28;20196;-60
2023/04/10 09:41:54;;;;;;;2.63;1.90;;;;;12.40;96358.00;;;;5055748;28;20200;-60
2023/04/10 09:44:30;;;;;;;1.00;1.00;;;;;12.50;96357.00;;;;5055815;28;20220;-59
2023/04/10 09:46:58;;;;;;;1.00;1.00;;;;;12.60;96344.00;;;;5055754;28;20602;-60
2023/04/10 09:49:25;;;;;;;1.07;1.00;;;;;13.00;96337.00;;;;5055437;28;20196;-60
2023/04/10 09:51:52;;;;;;;1.13;1.13;;;;;13.40;96343.00;;;;5054298;28;20220;-61
2023/04/10 09:54:35;;;;;;;0.80;0.80;;;;;13.70;96335.00;;;;5055366;28;20235;-60
2023/04/10 09:57:05;;;;;;;0.83;0.83;;;;;13.80;96333.00;;;;5055292;28;20181;-60
2023/04/10 09:59:32;;;;;;;1.27;1.17;;;;;13.60;96333.00;;;;5055211;28;20193;-61
2023/04/10 10:02:00;;;;;;;0.70;0.70;;;;;13.80;96317.00;;;;5055656;28;20199;-61
2023/04/10 10:04:28;;;;;;;0.80;0.80;;;;;13.80;96310.00;;;;5055555;28;20277;-60
2023/04/10 10:06:55;;;;;;;0.40;0.40;;;;;13.90;96319.00;;;;5055008;28;20690;-60
2023/04/10 10:09:24;;;;;;;1.07;1.07;;;;;14.10;96311.00;;;;5054962;28;20239;-59
2023/04/10 10:11:53;;;;;;;0.70;0.70;;;;;14.20;96314.00;;;;5054947;28;20195;-60
2023/04/10 10:14:24;;;;;;;1.00;1.00;;;;;14.30;96300.00;;;;5054889;28;20562;-61
2023/04/10 10:16:55;;;;;;;1.37;1.37;;;;;14.20;96306.00;;;;5054989;28;20242;-60
2023/04/10 10:19:29;;;;;;;0.73;0.73;;;;;14.90;96299.00;;;;5055201;28;20259;-61
2023/04/10 10:22:00;;;;;;;1.10;1.10;;;;;14.70;96290.00;;;;5055070;28;20172;-61
2023/04/10 10:24:29;;;;;;;1.63;1.53;;;;;14.70;96282.00;;;;5054748;28;20220;-61
2023/04/10 10:27:00;;;;;;;0.77;0.77;;;;;14.70;96287.00;;;;5055360;28;20204;-60
2023/04/10 10:29:34;;;;;;;0.67;0.67;;;;;14.80;96283.00;;;;5054668;28;20192;-60
2023/04/10 10:32:03;;;;;;;0.63;0.63;;;;;15.00;96289.00;;;;5054536;28;20179;-60
2023/04/10 10:34:32;;;;;;;0.70;0.70;;;;;15.00;96286.00;;;;5054359;28;20215;-60
2023/04/10 10:37:00;;;;;;;0.90;0.90;;;;;14.80;96275.00;;;;5055156;28;20546;-60
2023/04/10 10:39:37;;;;;;;3.47;1.13;;;;;14.90;96271.00;;;;5054479;28;20210;-60
2023/04/10 10:42:15;;;;;;;0.87;0.87;;;;;15.10;96282.00;;;;5054481;28;20184;-60
2023/04/10 10:44:49;;;;;;;0.80;0.80;;;;;15.00;96275.00;;;;5054330;28;20227;-60
2023/04/10 10:47:20;;;;;;;0.80;0.80;;;;;14.70;96269.00;;;;5055143;28;20191;-60
2023/04/10 10:49:55;;;;;;;0.60;0.60;;;;;15.10;96257.00;;;;5054288;28;20608;-60
2023/04/10 10:52:39;;;;;;;0.63;0.63;;;;;15.20;96262.00;;;;5054434;28;20705;-59
2023/04/10 10:55:33;;;;;;;0.67;0.67;;;;;15.70;96266.00;;;;5054175;28;20208;-60
2023/04/10 10:58:02;;;;;;;0.70;0.70;;;;;16.10;96260.00;;;;5040337;28;20204;-60
2023/04/10 11:01:07;;;;;;;0.60;0.60;;;;;16.30;96258.00;;;;5054633;28;20270;-60
2023/04/10 11:03:35;;;;;;;0.50;0.50;;;;;16.20;96259.00;;;;5054128;28;20642;-60
2023/04/10 11:06:05;;;;;;;1.00;1.00;;;;;16.30;96245.00;;;;5054330;28;20202;-59
2023/04/10 11:08:42;;;;;;;0.80;0.80;;;;;16.70;96246.00;;;;5054251;28;20235;-60
2023/04/10 11:11:15;;;;;;;1.00;0.97;;;;;16.80;96250.00;;;;5053867;28;20177;-60
2023/04/10 11:14:03;;;;;;;0.90;0.90;;;;;16.70;96241.00;;;;5053624;28;20270;-59
2023/04/10 11:16:45;;;;;;;0.77;0.77;;;;;17.10;96246.00;;;;5054257;28;20184;-60
2023/04/10 11:19:15;;;;;;;0.50;0.50;;;;;17.00;96240.00;;;;5053972;28;20268;-59
2023/04/10 11:22:14;;;;;;;0.70;0.70;;;;;17.30;96244.00;;;;5053752;28;20184;-61
2023/04/10 11:24:57;;;;;;;0.50;0.50;;;;;17.70;96253.00;;;;5020034;28;20643;-59
2023/04/10 11:27:45;;;;;;;0.97;0.97;;;;;17.10;96233.00;;;;5054095;28;20567;-59
2023/04/10 11:30:42;;;;;;;0.77;0.77;;;;;17.00;96227.00;;;;5053989;28;20215;-59
2023/04/10 11:33:18;;;;;;;0.60;0.60;;;;;16.30;96227.00;;;;4991899;28;20229;-60
2023/04/10 11:35:47;;;;;;;2.00;0.93;;;;;16.90;96232.00;;;;5043572;28;20247;-60
2023/04/10 11:38:16;;;;;;;0.80;0.80;;;;;16.30;96230.00;;;;5053712;28;20271;-58
2023/04/10 11:41:02;;;;;;;0.50;0.50;;;;;16.80;96232.00;;;;5053612;28;20199;-58
2023/04/10 11:43:30;;;;;;;0.50;0.50;;;;;16.50;96214.00;;;;5067631;22;20295;-64
2023/04/10 11:46:02;;;;;;;0.40;0.40;;;;;16.20;96217.00;;;;5053626;28;20271;-62
2023/04/10 11:48:31;;;;;;;0.50;0.50;;;;;16.40;96215.00;;;;5053470;28;20195;-63
2023/04/10 11:51:00;;;;;;;0.60;0.60;;;;;17.00;96200.00;;;;5052997;28;20197;-63
2023/04/10 11:53:28;;;;;;;0.70;0.70;;;;;17.30;96196.00;;;;5048183;28;20278;-62
2023/04/10 11:55:57;;;;;;;0.90;0.90;;;;;17.20;96192.00;;;;5033021;28;20692;-62
2023/04/10 11:58:26;;;;;;;1.27;1.20;;;;;17.20;96195.00;;;;5033633;28;20193;-63
2023/04/10 12:00:58;;;;;;;0.60;0.60;;;;;17.00;96199.00;;;;5033525;28;20255;-62
2023/04/10 12:03:34;;;;;;;0.60;0.60;;;;;16.70;96191.00;;;;5033094;28;20209;-62
2023/04/10 12:06:02;;;;;;;0.60;0.60;;;;;17.10;96192.00;;;;5033216;28;20228;-63
2023/04/10 12:08:33;;;;;;;0.83;0.83;;;;;17.40;96194.00;;;;5033189;28;20192;-63
2023/04/10 12:11:01;;;;;;;0.70;0.70;;;;;17.40;96187.00;;;;5032911;28;20231;-62
2023/04/10 12:13:29;;;;;;;1.20;1.20;;;;;17.90;96178.00;;;;5032241;28;20232;-62
2023/04/10 12:16:00;;;;;;;0.53;0.53;;;;;17.70;96182.00;;;;5032854;28;20185;-63
2023/04/10 12:18:28;;;;;;;0.50;0.50;;;;;17.80;96180.00;;;;5034102;28;20600;-62
2023/04/10 12:20:58;;;;;;;0.63;0.63;;;;;17.20;96182.00;;;;5032816;28;20200;-63
2023/04/10 12:23:26;;;;;;;0.80;0.80;;;;;16.60;96184.00;;;;5032624;28;20205;-62
2023/04/10 12:26:06;;;;;;;1.90;0.60;;;;;17.80;96179.00;;;;5031370;28;20231;-63
2023/04/10 12:28:34;;;;;;;0.60;0.60;;;;;17.70;96189.00;;;;5033081;28;20646;-63
2023/04/10 12:31:02;;;;;;;1.70;0.87;;;;;18.00;96180.00;;;;5032661;28;20220;-62
2023/04/10 12:33:29;;;;;;;0.93;0.93;;;;;18.50;96168.00;;;;5032698;28;20221;-63
2023/04/10 12:35:59;;;;;;;0.57;0.57;;;;;18.60;96163.00;;;;5032682;28;20193;-63